createdAt,value
2023-03-10T00:01:36.332Z,10.10
2023-03-10T00:03:37.805Z,10.38
2023-03-10T00:05:39.788Z,10.77
2023-03-10T00:07:41.324Z,9.82
2023-03-10T00:09:42.962Z,9.38
2023-03-10T00:11:44.619Z,10.38
2023-03-10T00:13:46.183Z,10.48
2023-03-10T00:15:48.648Z,10.30
2023-03-10T00:17:50.301Z,9.90
2023-03-10T00:19:51.777Z,9.63
2023-03-10T00:21:53.682Z,9.70
2023-03-10T00:23:56.063Z,10.80
2023-03-10T00:25:59.740Z,10.07
2023-03-10T00:28:01.236Z,9.38
2023-03-10T00:30:04.059Z,9.85
2023-03-10T00:32:05.960Z,9.63
2023-03-10T00:34:07.453Z,9.50
2023-03-10T00:36:13.485Z,8.85
2023-03-10T00:38:14.998Z,9.55
2023-03-10T00:40:16.740Z,8.88
2023-03-10T00:42:18.794Z,8.73
2023-03-10T00:44:20.275Z,10.27
2023-03-10T00:46:23.107Z,9.25
2023-03-10T00:48:24.687Z,8.40
2023-03-10T00:50:26.155Z,9.60
2023-03-10T00:52:32.810Z,8.75
2023-03-10T00:54:34.324Z,8.50
2023-03-10T00:56:35.821Z,8.13
2023-03-10T00:58:37.541Z,9.18
2023-03-10T01:00:39.046Z,9.23
2023-03-10T01:02:40.556Z,8.70
2023-03-10T01:04:42.102Z,9.20
2023-03-10T01:06:44.593Z,9.38
2023-03-10T01:08:46.216Z,8.02
2023-03-10T01:10:48.217Z,8.73
2023-03-10T01:12:49.700Z,8.70
2023-03-10T01:14:51.189Z,9.77
2023-03-10T01:16:52.914Z,8.30
2023-03-10T01:18:54.866Z,9.85
2023-03-10T01:20:56.317Z,8.40
2023-03-10T01:22:58.686Z,8.75
2023-03-10T01:25:00.151Z,8.90
2023-03-10T01:27:01.642Z,8.98
2023-03-10T01:29:03.279Z,9.45
2023-03-10T01:31:07.678Z,9.25
2023-03-10T01:33:10.202Z,9.48
2023-03-10T01:35:12.041Z,8.68
2023-03-10T01:37:13.518Z,9.70
2023-03-10T01:39:14.988Z,9.88
2023-03-10T01:41:17.127Z,9.70
2023-03-10T01:43:22.110Z,10.32
2023-03-10T01:45:23.506Z,8.32
2023-03-10T01:47:24.947Z,9.60
2023-03-10T01:49:33.656Z,8.82
2023-03-10T01:51:37.288Z,7.93
2023-03-10T01:53:39.474Z,9.05
2023-03-10T01:55:48.316Z,8.07
2023-03-10T01:59:55.375Z,8.23
2023-03-10T02:01:58.464Z,7.95
2023-03-10T02:04:09.223Z,8.63
2023-03-10T02:06:12.502Z,7.15
2023-03-10T02:08:14.816Z,8.85
2023-03-10T02:10:17.147Z,8.32
2023-03-10T02:12:20.373Z,8.55
2023-03-10T02:14:21.894Z,8.02
2023-03-10T02:16:24.186Z,8.65
2023-03-10T02:18:26.185Z,6.95
2023-03-10T02:20:30.696Z,6.95
2023-03-10T02:22:32.929Z,7.60
2023-03-10T02:24:38.803Z,7.80
2023-03-10T02:26:50.223Z,8.23
2023-03-10T02:28:54.430Z,8.10
2023-03-10T02:30:57.250Z,8.38
2023-03-10T02:33:04.579Z,8.30
2023-03-10T02:35:06.605Z,8.52
2023-03-10T02:37:17.100Z,8.20
2023-03-10T02:39:18.577Z,7.43
2023-03-10T02:41:25.002Z,7.50
2023-03-10T02:43:30.085Z,7.72
2023-03-10T02:45:34.924Z,8.38
2023-03-10T02:47:36.437Z,8.27
2023-03-10T02:49:39.648Z,7.30
2023-03-10T02:51:44.228Z,7.55
2023-03-10T02:53:45.702Z,6.97
2023-03-10T02:55:47.642Z,6.70
2023-03-10T02:57:49.127Z,6.57
2023-03-10T02:59:50.621Z,6.95
2023-03-10T03:01:52.086Z,7.15
2023-03-10T03:03:54.120Z,6.68
2023-03-10T03:05:55.688Z,7.25
2023-03-10T03:07:57.161Z,7.03
2023-03-10T03:09:58.658Z,7.22
2023-03-10T03:12:01.307Z,5.25
2023-03-10T03:14:02.858Z,7.05
2023-03-10T03:16:07.331Z,7.53
2023-03-10T03:18:09.704Z,6.38
2023-03-10T03:20:14.090Z,8.20
2023-03-10T03:22:15.588Z,6.95
2023-03-10T03:24:18.766Z,7.13
2023-03-10T03:26:23.271Z,7.15
2023-03-10T03:28:24.759Z,6.93
2023-03-10T03:30:28.052Z,7.88
2023-03-10T03:32:29.560Z,6.53
2023-03-10T03:34:31.058Z,7.07
2023-03-10T03:36:32.768Z,7.25
2023-03-10T03:38:34.880Z,7.03
2023-03-10T03:40:37.579Z,7.00
2023-03-10T03:42:40.400Z,6.15
2023-03-10T03:44:41.938Z,6.80
2023-03-10T03:46:43.401Z,6.63
2023-03-10T03:48:44.845Z,6.78
2023-03-10T03:50:48.073Z,7.35
2023-03-10T03:52:50.149Z,6.57
2023-03-10T03:54:51.765Z,7.03
2023-03-10T03:56:53.274Z,6.63
2023-03-10T03:58:55.074Z,6.72
2023-03-10T04:00:56.646Z,6.65
2023-03-10T04:02:58.114Z,6.53
2023-03-10T04:04:59.578Z,6.68
2023-03-10T04:07:01.652Z,6.38
2023-03-10T04:09:03.774Z,6.35
2023-03-10T04:11:05.382Z,6.60
2023-03-10T04:13:06.882Z,6.68
2023-03-10T04:15:09.126Z,6.30
2023-03-10T04:17:12.248Z,6.63
2023-03-10T04:19:14.287Z,6.43
2023-03-10T04:21:17.491Z,6.00
2023-03-10T04:23:18.977Z,6.50
2023-03-10T04:25:20.442Z,5.65
2023-03-10T04:27:21.895Z,5.68
2023-03-10T04:29:24.527Z,6.05
2023-03-10T04:31:26.469Z,6.55
2023-03-10T04:33:28.068Z,6.45
2023-03-10T04:35:29.596Z,6.03
2023-03-10T04:37:31.053Z,6.90
2023-03-10T04:39:32.528Z,5.57
2023-03-10T04:41:34.010Z,5.75
2023-03-10T04:43:36.297Z,5.70
2023-03-10T04:45:37.788Z,7.53
2023-03-10T04:47:39.803Z,6.90
2023-03-10T04:49:41.440Z,6.72
2023-03-10T04:51:42.947Z,5.47
2023-03-10T04:53:44.416Z,5.72
2023-03-10T04:55:45.889Z,6.65
2023-03-10T04:57:47.411Z,6.40
2023-03-10T04:59:48.889Z,6.22
2023-03-10T05:01:52.381Z,6.75
2023-03-10T05:03:54.062Z,7.30
2023-03-10T05:05:55.728Z,6.65
2023-03-10T05:07:57.189Z,6.55
2023-03-10T05:09:58.665Z,6.55
2023-03-10T05:12:00.117Z,6.65
2023-03-10T05:14:01.725Z,6.63
2023-03-10T05:16:03.576Z,6.78
2023-03-10T05:18:05.526Z,6.38
2023-03-10T05:20:09.551Z,6.60
2023-03-10T05:22:12.391Z,6.95
2023-03-10T05:24:13.954Z,7.00
2023-03-10T05:26:15.799Z,7.25
2023-03-10T05:28:17.399Z,5.82
2023-03-10T05:30:18.986Z,6.75
2023-03-10T05:32:20.631Z,6.72
2023-03-10T05:34:23.812Z,7.05
2023-03-10T05:36:25.405Z,7.65
2023-03-10T05:38:26.853Z,6.95
2023-03-10T05:40:28.309Z,6.50
2023-03-10T05:42:29.905Z,6.82
2023-03-10T05:44:31.735Z,8.10
2023-03-10T05:46:33.304Z,7.47
2023-03-10T05:48:35.217Z,7.70
2023-03-10T05:50:36.755Z,7.25
2023-03-10T05:52:39.966Z,7.45
2023-03-10T05:54:41.431Z,7.80
2023-03-10T05:56:42.970Z,7.07
2023-03-10T05:58:45.513Z,7.00
2023-03-10T06:00:47.211Z,8.57
2023-03-10T06:02:48.735Z,8.10
2023-03-10T06:04:50.226Z,7.95
2023-03-10T06:06:51.701Z,7.93
2023-03-10T06:08:53.157Z,8.73
2023-03-10T06:10:55.633Z,8.75
2023-03-10T06:12:57.265Z,7.60
2023-03-10T06:15:11.090Z,7.70
2023-03-10T06:17:12.575Z,8.20
2023-03-10T06:19:14.051Z,8.60
2023-03-10T06:21:15.604Z,8.80
2023-03-10T06:23:18.092Z,8.85
2023-03-10T06:25:20.709Z,9.60
2023-03-10T06:27:22.216Z,9.77
2023-03-10T06:29:23.764Z,9.38
2023-03-10T06:31:25.571Z,10.07
2023-03-10T06:33:28.323Z,9.82
2023-03-10T06:35:31.587Z,10.23
2023-03-10T06:37:33.169Z,10.02
2023-03-10T06:39:38.058Z,10.00
2023-03-10T06:41:39.555Z,10.55
2023-03-10T06:43:41.117Z,10.77
2023-03-10T06:45:44.521Z,10.52
2023-03-10T06:47:46.070Z,11.68
2023-03-10T06:49:47.535Z,11.82
2023-03-10T06:51:48.973Z,11.00
2023-03-10T06:53:50.766Z,10.57
2023-03-10T06:56:06.589Z,11.13
2023-03-10T06:58:08.142Z,10.25
2023-03-10T07:00:11.969Z,10.15
2023-03-10T07:02:13.480Z,11.60
2023-03-10T07:04:14.950Z,10.90
2023-03-10T07:06:16.446Z,11.38
2023-03-10T07:08:17.998Z,12.32
2023-03-10T07:10:19.693Z,11.82
2023-03-10T07:12:21.187Z,11.18
2023-03-10T07:14:22.682Z,11.73
2023-03-10T07:16:24.582Z,11.55
2023-03-10T07:18:29.682Z,12.00
2023-03-10T07:20:31.183Z,10.18
2023-03-10T07:22:32.642Z,12.20
2023-03-10T07:24:34.094Z,11.80
2023-03-10T07:26:35.586Z,11.23
2023-03-10T07:28:37.965Z,12.18
2023-03-10T07:30:39.923Z,11.82
2023-03-10T07:32:41.855Z,12.38
2023-03-10T07:34:43.373Z,11.15
2023-03-10T07:36:44.808Z,11.68
2023-03-10T07:38:46.888Z,10.25
2023-03-10T07:40:48.347Z,11.48
2023-03-10T07:42:49.846Z,12.40
2023-03-10T07:44:51.378Z,12.07
2023-03-10T07:46:52.968Z,12.77
2023-03-10T07:48:55.620Z,12.23
2023-03-10T07:50:58.672Z,11.88
2023-03-10T07:53:00.215Z,13.55
2023-03-10T07:55:01.679Z,12.38
2023-03-10T07:57:03.242Z,13.85
2023-03-10T07:59:04.814Z,12.65
2023-03-10T08:01:07.820Z,12.50
2023-03-10T08:03:09.333Z,11.98
2023-03-10T08:05:11.461Z,13.57
2023-03-10T08:07:13.048Z,13.55
2023-03-10T08:09:14.510Z,12.93
2023-03-10T08:11:16.716Z,13.52
2023-03-10T08:13:18.262Z,14.32
2023-03-10T08:15:19.727Z,13.23
2023-03-10T08:17:21.248Z,12.63
2023-03-10T08:19:27.044Z,12.13
2023-03-10T08:21:28.506Z,12.50
2023-03-10T08:23:30.036Z,13.60
2023-03-10T08:25:31.534Z,13.77
2023-03-10T08:27:33.022Z,13.32
2023-03-10T08:29:34.531Z,12.20
2023-03-10T08:31:36.441Z,13.18
2023-03-10T08:33:39.930Z,13.18
2023-03-10T08:35:41.599Z,13.30
2023-03-10T08:37:43.609Z,13.57
2023-03-10T08:39:46.463Z,13.82
2023-03-10T08:41:49.037Z,12.60
2023-03-10T08:43:53.407Z,14.05
2023-03-10T08:45:54.881Z,14.20
2023-03-10T08:47:56.331Z,13.88
2023-03-10T08:49:57.822Z,15.48
2023-03-10T08:52:00.337Z,14.07
2023-03-10T08:54:02.406Z,13.93
2023-03-10T08:56:05.249Z,12.65
2023-03-10T08:58:06.735Z,12.95
2023-03-10T09:00:12.424Z,13.13
2023-03-10T09:02:15.296Z,12.57
2023-03-10T09:04:16.855Z,13.02
2023-03-10T09:06:19.147Z,14.00
2023-03-10T09:08:20.923Z,13.82
2023-03-10T09:10:22.397Z,14.20
2023-03-10T09:12:23.853Z,11.60
2023-03-10T09:14:25.849Z,11.85
2023-03-10T09:16:28.917Z,13.60
2023-03-10T09:18:30.454Z,12.80
2023-03-10T09:20:31.919Z,13.32
2023-03-10T09:22:33.370Z,12.73
2023-03-10T09:24:34.873Z,12.32
2023-03-10T09:26:36.400Z,12.73
2023-03-10T09:28:38.031Z,12.98
2023-03-10T09:30:41.385Z,12.88
2023-03-10T09:32:44.792Z,12.45
2023-03-10T09:34:46.347Z,13.85
2023-03-10T09:36:47.894Z,12.63
2023-03-10T09:38:49.408Z,12.80
2023-03-10T09:41:03.381Z,12.15
2023-03-10T09:43:07.109Z,12.45
2023-03-10T09:45:41.303Z,12.57
2023-03-10T09:47:55.284Z,12.38
2023-03-10T09:50:24.806Z,12.10
2023-03-10T09:52:46.112Z,13.10
2023-03-10T09:55:47.854Z,11.65
2023-03-10T09:57:52.861Z,12.88
2023-03-10T09:59:59.185Z,12.18
2023-03-10T10:02:03.953Z,12.98
2023-03-10T10:04:11.655Z,13.18
2023-03-10T10:06:42.317Z,12.73
2023-03-10T10:09:01.830Z,12.95
2023-03-10T10:11:09.670Z,13.43
2023-03-10T10:13:16.506Z,12.75
2023-03-10T10:15:22.346Z,13.02
2023-03-10T10:17:29.540Z,12.00
2023-03-10T10:19:33.108Z,12.20
2023-03-10T10:21:56.441Z,10.63
2023-03-10T10:23:59.356Z,10.88
2023-03-10T10:26:09.746Z,11.85
2023-03-10T10:28:20.215Z,11.02
2023-03-10T10:30:33.145Z,10.85
2023-03-10T10:32:34.712Z,12.35
2023-03-10T10:34:38.494Z,13.52
2023-03-10T10:36:52.028Z,11.32
2023-03-10T10:38:55.561Z,12.07
2023-03-10T10:41:07.709Z,12.38
2023-03-10T10:43:16.921Z,10.25
2023-03-10T10:47:51.057Z,10.27
2023-03-10T10:49:53.705Z,11.43
2023-03-10T10:52:01.760Z,9.98
2023-03-10T10:54:19.432Z,11.68
2023-03-10T10:56:21.832Z,11.52
2023-03-10T10:58:38.735Z,11.18
2023-03-10T11:00:40.369Z,10.88
2023-03-10T11:02:41.886Z,11.75
2023-03-10T11:04:46.322Z,11.52
2023-03-10T11:06:48.508Z,10.65
2023-03-10T11:08:53.513Z,9.63
2023-03-10T11:11:02.009Z,10.00
2023-03-10T11:13:17.784Z,10.82
2023-03-10T11:15:26.330Z,10.25
2023-03-10T11:17:42.936Z,10.52
2023-03-10T11:19:59.685Z,10.95
2023-03-10T11:22:14.210Z,10.10
2023-03-10T11:24:36.344Z,10.45
2023-03-10T11:27:01.945Z,9.75
2023-03-10T11:29:13.436Z,10.88
2023-03-10T11:31:28.873Z,10.70
2023-03-10T11:33:50.405Z,10.48
2023-03-10T11:36:15.704Z,8.13
2023-03-10T11:38:39.014Z,9.52
2023-03-10T11:40:51.542Z,10.93
2023-03-10T11:43:00.694Z,10.55
2023-03-10T11:45:02.235Z,10.93
2023-03-10T11:47:21.423Z,10.10
2023-03-10T11:49:27.263Z,11.43
2023-03-10T11:51:47.983Z,10.38
2023-03-10T11:53:53.104Z,11.20
2023-03-10T11:55:55.899Z,10.65
2023-03-10T11:58:01.178Z,11.60
2023-03-10T12:00:07.802Z,10.93
2023-03-10T12:02:26.872Z,10.65
2023-03-10T12:04:36.438Z,10.95
2023-03-10T12:06:52.551Z,11.68
2023-03-10T12:08:55.911Z,11.18
2023-03-10T12:11:01.307Z,10.48
2023-03-10T12:13:04.362Z,11.88
2023-03-10T12:15:16.204Z,11.98
2023-03-10T12:17:17.854Z,12.48
2023-03-10T12:19:19.668Z,11.35
2023-03-10T12:21:28.118Z,11.38
2023-03-10T12:23:36.642Z,11.68
2023-03-10T12:25:38.425Z,11.07
2023-03-10T12:28:13.462Z,12.60
2023-03-10T12:30:46.390Z,11.35
2023-03-10T12:32:48.218Z,10.35
2023-03-10T12:35:22.453Z,12.18
2023-03-10T12:37:24.009Z,10.50
2023-03-10T12:39:28.256Z,11.38
2023-03-10T12:41:29.656Z,9.95
2023-03-10T12:43:43.028Z,10.82
2023-03-10T12:45:45.835Z,11.07
2023-03-10T12:48:03.187Z,11.13
2023-03-10T12:50:44.364Z,11.35
2023-03-10T12:52:59.360Z,11.68
2023-03-10T12:55:24.728Z,11.32
2023-03-10T12:57:47.124Z,8.65
2023-03-10T13:00:00.926Z,10.68
2023-03-10T13:02:04.618Z,11.00
2023-03-10T13:04:08.084Z,11.38
2023-03-10T13:06:18.703Z,11.85
2023-03-10T13:08:24.966Z,11.30
2023-03-10T13:10:30.928Z,11.15
2023-03-10T13:12:48.881Z,11.75
2023-03-10T13:14:59.037Z,11.43
2023-03-10T13:17:01.626Z,11.35
2023-03-10T13:19:04.292Z,11.57
2023-03-10T13:21:06.010Z,10.63
2023-03-10T13:23:20.697Z,11.75
2023-03-10T13:25:22.410Z,11.98
2023-03-10T13:27:28.870Z,13.00
2023-03-10T13:29:30.570Z,13.57
2023-03-10T13:31:33.552Z,12.23
2023-03-10T13:33:43.009Z,13.50
2023-03-10T13:35:48.406Z,13.15
2023-03-10T13:38:13.720Z,13.65
2023-03-10T13:40:17.112Z,9.45
2023-03-10T13:42:40.746Z,12.20
2023-03-10T13:44:44.808Z,13.27
2023-03-10T13:47:16.813Z,13.20
2023-03-10T13:49:20.263Z,13.52
2023-03-10T13:51:32.076Z,12.98
2023-03-10T13:53:34.026Z,13.73
2023-03-10T13:55:41.445Z,13.38
2023-03-10T13:57:44.773Z,14.05
2023-03-10T13:59:47.823Z,13.55
2023-03-10T14:01:53.670Z,14.13
2023-03-10T14:03:56.777Z,14.63
2023-03-10T14:05:58.280Z,13.45
2023-03-10T14:08:00.870Z,14.02
2023-03-10T14:10:05.192Z,14.10
2023-03-10T14:12:08.433Z,14.40
2023-03-10T14:14:11.677Z,15.25
2023-03-10T14:16:13.671Z,13.13
2023-03-10T14:18:17.207Z,12.48
2023-03-10T14:20:27.840Z,12.95
2023-03-10T14:22:37.810Z,13.65
2023-03-10T14:24:39.306Z,12.82
2023-03-10T14:26:41.515Z,14.07
2023-03-10T14:28:43.050Z,13.85
2023-03-10T14:30:44.647Z,15.07
2023-03-10T14:32:46.724Z,14.48
2023-03-10T14:34:48.816Z,14.38
2023-03-10T14:36:50.278Z,15.85
2023-03-10T14:38:51.789Z,15.50
2023-03-10T14:40:54.990Z,15.35
2023-03-10T14:43:00.339Z,15.65
2023-03-10T14:45:08.285Z,15.60
2023-03-10T14:47:09.901Z,15.65
2023-03-10T14:49:15.222Z,16.00
2023-03-10T14:51:32.686Z,14.98
2023-03-10T14:53:36.353Z,16.67
2023-03-10T14:55:39.055Z,17.23
2023-03-10T14:57:41.233Z,16.63
2023-03-10T14:59:42.727Z,16.70
2023-03-10T15:01:44.565Z,17.80
2023-03-10T15:03:48.964Z,16.83
2023-03-10T15:05:50.481Z,17.60
2023-03-10T15:07:52.062Z,16.75
2023-03-10T15:10:08.847Z,16.38
2023-03-10T15:12:17.834Z,16.58
2023-03-10T15:14:19.580Z,17.42
2023-03-10T15:16:21.074Z,18.45
2023-03-10T15:18:23.765Z,16.98
2023-03-10T15:20:25.307Z,18.15
2023-03-10T15:22:26.792Z,18.75
2023-03-10T15:24:28.241Z,19.38
2023-03-10T15:26:29.684Z,19.33
2023-03-10T15:28:31.245Z,19.10
2023-03-10T15:30:35.766Z,19.48
2023-03-10T15:32:37.270Z,21.05
2023-03-10T15:34:38.728Z,20.30
2023-03-10T15:36:40.398Z,19.77
2023-03-10T15:38:41.903Z,19.88
2023-03-10T15:40:43.705Z,20.13
2023-03-10T15:42:46.169Z,19.85
2023-03-10T15:44:48.562Z,16.27
2023-03-10T15:46:55.010Z,19.23
2023-03-10T15:48:56.725Z,21.52
2023-03-10T15:50:58.365Z,20.60
2023-03-10T15:53:00.563Z,22.10
2023-03-10T15:55:02.338Z,18.23
2023-03-10T15:57:03.941Z,18.02
2023-03-10T15:59:07.480Z,18.73
2023-03-10T16:01:12.027Z,12.80
2023-03-10T16:03:17.748Z,16.40
2023-03-10T16:05:20.197Z,16.48
2023-03-10T16:07:21.646Z,16.98
2023-03-10T16:09:23.091Z,16.45
2023-03-10T16:11:24.648Z,15.63
2023-03-10T16:13:26.181Z,15.35
2023-03-10T16:15:27.712Z,15.82
2023-03-10T16:17:29.642Z,16.13
2023-03-10T16:19:31.146Z,16.13
2023-03-10T16:21:32.653Z,15.60
2023-03-10T16:23:34.371Z,14.30
2023-03-10T16:25:35.891Z,15.70
2023-03-10T16:27:37.404Z,15.30
2023-03-10T16:29:40.375Z,14.50
2023-03-10T16:31:43.031Z,14.40
2023-03-10T16:33:46.061Z,13.55
2023-03-10T16:35:47.574Z,13.18
2023-03-10T16:37:49.043Z,12.88
2023-03-10T16:39:54.508Z,11.23
2023-03-10T16:41:55.973Z,13.13
2023-03-10T16:43:57.550Z,12.88
2023-03-10T16:46:15.701Z,11.60
2023-03-10T16:48:18.888Z,10.88
2023-03-10T16:50:20.354Z,10.60
2023-03-10T16:52:21.812Z,11.82
2023-03-10T16:54:23.280Z,11.43
2023-03-10T16:56:26.233Z,11.60
2023-03-10T16:58:27.744Z,11.25
2023-03-10T17:00:29.340Z,10.68
2023-03-10T17:02:30.923Z,10.70
2023-03-10T17:04:33.129Z,10.05
2023-03-10T17:06:34.632Z,9.77
2023-03-10T17:08:37.200Z,10.38
2023-03-10T17:10:38.668Z,10.43
2023-03-10T17:12:40.142Z,10.18
2023-03-10T17:14:43.233Z,8.90
2023-03-10T17:16:45.465Z,10.57
2023-03-10T17:18:47.017Z,9.70
2023-03-10T17:20:48.617Z,10.57
2023-03-10T17:22:50.056Z,9.88
2023-03-10T17:24:56.626Z,10.32
2023-03-10T17:26:58.211Z,9.48
2023-03-10T17:28:59.962Z,8.85
2023-03-10T17:31:12.534Z,9.60
2023-03-10T17:33:14.092Z,9.38
2023-03-10T17:35:15.561Z,10.05
2023-03-10T17:37:17.049Z,11.48
2023-03-10T17:39:21.256Z,8.98
2023-03-10T17:41:23.803Z,10.45
2023-03-10T17:43:34.273Z,10.65
2023-03-10T17:45:36.043Z,10.50
2023-03-10T17:47:37.585Z,13.05
2023-03-10T17:49:40.506Z,10.38
2023-03-10T17:51:44.212Z,11.00
2023-03-10T17:53:46.184Z,12.05
2023-03-10T17:55:47.778Z,11.43
2023-03-10T17:57:49.216Z,14.88
2023-03-10T17:59:51.296Z,11.80
2023-03-10T18:01:52.974Z,9.82
2023-03-10T18:03:56.280Z,11.65
2023-03-10T18:05:57.842Z,12.07
2023-03-10T18:07:59.795Z,12.63
2023-03-10T18:10:01.334Z,11.18
2023-03-10T18:12:02.852Z,11.27
2023-03-10T18:14:05.715Z,13.27
2023-03-10T18:16:14.226Z,11.55
2023-03-10T18:18:15.710Z,11.95
2023-03-10T18:20:17.328Z,14.18
2023-03-10T18:22:18.880Z,11.73
2023-03-10T18:24:20.373Z,12.98
2023-03-10T18:26:25.088Z,12.32
2023-03-10T18:28:26.781Z,15.88
2023-03-10T18:30:28.271Z,12.20
2023-03-10T18:32:30.455Z,10.90
2023-03-10T18:34:31.937Z,11.77
2023-03-10T18:36:33.662Z,11.60
2023-03-10T18:38:35.189Z,9.52
2023-03-10T18:40:36.733Z,10.15
2023-03-10T18:42:38.170Z,8.35
2023-03-10T18:44:39.735Z,15.20
2023-03-10T18:46:41.216Z,9.93
2023-03-10T18:48:42.888Z,9.48
2023-03-10T18:50:44.364Z,12.77
2023-03-10T18:52:46.117Z,10.27
2023-03-10T18:54:48.323Z,10.02
2023-03-10T18:56:50.044Z,11.38
2023-03-10T18:58:51.529Z,10.25
2023-03-10T19:00:53.050Z,9.57
2023-03-10T19:02:54.630Z,9.65
2023-03-10T19:04:59.478Z,8.73
2023-03-10T19:07:01.002Z,10.35
2023-03-10T19:09:02.778Z,9.55
2023-03-10T19:11:05.144Z,9.40
2023-03-10T19:13:08.485Z,11.63
2023-03-10T19:15:13.018Z,13.60
2023-03-10T19:17:14.989Z,15.95
2023-03-10T19:19:16.924Z,14.13
2023-03-10T19:21:18.430Z,13.63
2023-03-10T19:23:19.886Z,11.85
2023-03-10T19:25:23.168Z,12.07
2023-03-10T19:27:24.698Z,10.68
2023-03-10T19:29:26.191Z,11.40
2023-03-10T19:31:27.926Z,10.50
2023-03-10T19:33:29.494Z,10.52
2023-03-10T19:35:31.186Z,10.88
2023-03-10T19:37:32.678Z,10.70
2023-03-10T19:39:34.137Z,11.35
2023-03-10T19:41:35.662Z,11.35
2023-03-10T19:43:37.517Z,11.77
2023-03-10T19:45:39.041Z,13.15
2023-03-10T19:47:41.688Z,12.15
2023-03-10T19:49:43.309Z,12.98
2023-03-10T19:51:44.876Z,12.57
2023-03-10T19:53:46.382Z,11.35
2023-03-10T19:56:00.105Z,8.15
2023-03-10T19:58:01.551Z,10.13
2023-03-10T20:00:05.926Z,11.40
2023-03-10T20:02:13.086Z,10.75
2023-03-10T20:04:15.454Z,9.18
2023-03-10T20:06:17.234Z,7.35
2023-03-10T20:08:19.054Z,8.43
2023-03-10T20:10:20.641Z,8.68
2023-03-10T20:12:22.411Z,7.78
2023-03-10T20:14:25.026Z,7.72
2023-03-10T20:16:27.890Z,5.95
2023-03-10T20:18:29.613Z,7.10
2023-03-10T20:20:31.678Z,7.07
2023-03-10T20:22:33.138Z,7.70
2023-03-10T20:24:35.170Z,7.25
2023-03-10T20:26:36.646Z,7.18
2023-03-10T20:28:39.713Z,7.45
2023-03-10T20:30:41.469Z,5.72
2023-03-10T20:32:43.750Z,6.63
2023-03-10T20:34:45.243Z,6.72
2023-03-10T20:36:46.839Z,7.40
2023-03-10T20:38:48.328Z,7.75
2023-03-10T20:40:49.877Z,7.22
2023-03-10T20:42:53.508Z,7.90
2023-03-10T20:44:55.022Z,7.40
2023-03-10T20:46:56.486Z,8.75
2023-03-10T20:48:58.011Z,8.57
2023-03-10T20:51:00.554Z,8.93
2023-03-10T20:53:02.417Z,9.80
2023-03-10T20:55:06.376Z,11.15
2023-03-10T20:57:08.596Z,11.93
2023-03-10T20:59:10.868Z,10.93
2023-03-10T21:01:18.597Z,10.50
2023-03-10T21:03:21.494Z,12.17
2023-03-10T21:05:27.451Z,11.23
2023-03-10T21:07:28.906Z,12.25
2023-03-10T21:09:30.349Z,11.60
2023-03-10T21:11:34.050Z,11.27
2023-03-10T21:13:35.576Z,9.60
2023-03-10T21:15:38.562Z,9.50
2023-03-10T21:17:40.136Z,9.63
2023-03-10T21:19:41.593Z,8.90
2023-03-10T21:21:43.277Z,8.30
2023-03-10T21:23:44.763Z,8.77
2023-03-10T21:25:46.267Z,9.05
2023-03-10T21:27:49.665Z,8.13
2023-03-10T21:29:51.407Z,8.50
2023-03-10T21:31:52.886Z,8.05
2023-03-10T21:33:54.381Z,8.70
2023-03-10T21:35:57.062Z,8.85
2023-03-10T21:37:59.367Z,8.20
2023-03-10T21:40:00.832Z,8.52
2023-03-10T21:42:02.318Z,9.13
2023-03-10T21:44:04.023Z,8.00
2023-03-10T21:46:06.463Z,8.65
2023-03-10T21:48:08.375Z,8.73
2023-03-10T21:50:11.608Z,8.27
2023-03-10T21:52:13.184Z,8.57
2023-03-10T21:54:14.975Z,9.07
2023-03-10T21:56:19.835Z,8.75
2023-03-10T21:58:23.461Z,8.15
2023-03-10T22:00:24.974Z,9.07
2023-03-10T22:02:30.563Z,8.35
2023-03-10T22:04:32.895Z,7.75
2023-03-10T22:06:34.617Z,9.30
2023-03-10T22:08:37.697Z,7.45
2023-03-10T22:10:39.270Z,8.35
2023-03-10T22:12:40.740Z,8.25
2023-03-10T22:14:42.390Z,8.05
2023-03-10T22:16:43.869Z,8.10
2023-03-10T22:18:46.024Z,7.60
2023-03-10T22:20:47.479Z,7.57
2023-03-10T22:22:49.669Z,8.18
2023-03-10T22:24:51.195Z,7.07
2023-03-10T22:26:52.701Z,8.02
2023-03-10T22:28:54.444Z,7.82
2023-03-10T22:30:56.081Z,7.60
2023-03-10T22:32:57.988Z,7.68
2023-03-10T22:34:59.646Z,7.80
2023-03-10T22:37:01.094Z,6.90
2023-03-10T22:39:02.607Z,6.93
2023-03-10T22:41:09.337Z,7.47
2023-03-10T22:43:10.828Z,6.30
2023-03-10T22:45:27.990Z,6.60
2023-03-10T22:47:29.437Z,5.90
2023-03-10T22:49:31.271Z,6.75
2023-03-10T22:51:33.099Z,6.70
2023-03-10T22:53:36.807Z,6.50
2023-03-10T22:55:39.361Z,7.22
2023-03-10T22:57:40.869Z,7.22
2023-03-10T22:59:42.395Z,6.10
2023-03-10T23:01:44.227Z,6.07
2023-03-10T23:03:45.771Z,5.70
2023-03-10T23:05:47.745Z,5.70
2023-03-10T23:07:49.554Z,4.93
2023-03-10T23:09:51.033Z,4.47
2023-03-10T23:11:52.483Z,4.43
2023-03-10T23:13:54.116Z,3.90
2023-03-10T23:15:55.628Z,3.55
2023-03-10T23:17:57.640Z,3.13
2023-03-10T23:19:59.621Z,3.72
2023-03-10T23:22:01.328Z,2.78
2023-03-10T23:24:03.062Z,2.67
2023-03-10T23:26:04.814Z,2.08
2023-03-10T23:28:08.424Z,2.00
2023-03-10T23:30:10.847Z,1.92
2023-03-10T23:32:12.380Z,1.40
2023-03-10T23:34:13.932Z,1.80
2023-03-10T23:36:15.579Z,1.50
2023-03-10T23:38:17.183Z,1.52
2023-03-10T23:40:20.794Z,2.10
2023-03-10T23:42:22.274Z,1.70
2023-03-10T23:44:23.793Z,1.50
2023-03-10T23:46:25.345Z,1.80
2023-03-10T23:48:26.936Z,1.60
2023-03-10T23:50:30.820Z,1.60
2023-03-10T23:52:32.785Z,1.50
2023-03-10T23:54:34.372Z,1.30
2023-03-10T23:56:35.819Z,1.48
2023-03-10T23:58:37.386Z,1.50
